sensor_id;sensor_type;location;lat;lon;timestamp;pressure;altitude;pressure_sealevel;temperature;humidity
17615;BME280;8926;49.720;6.576;2023-01-09T00:02:01;97845.38;;;8.67;89.77
17615;BME280;8926;49.720;6.576;2023-01-09T00:04:26;97856.59;;;8.68;89.89
17615;BME280;8926;49.720;6.576;2023-01-09T00:06:52;97853.19;;;8.67;89.92
17615;BME280;8926;49.720;6.576;2023-01-09T00:09:23;97855.78;;;8.67;89.43
17615;BME280;8926;49.720;6.576;2023-01-09T00:11:49;97866.19;;;8.67;89.68
17615;BME280;8926;49.720;6.576;2023-01-09T00:14:15;97859.34;;;8.66;90.07
17615;BME280;8926;49.720;6.576;2023-01-09T00:16:41;97864.78;;;8.63;89.38
17615;BME280;8926;49.720;6.576;2023-01-09T00:19:07;97858.03;;;8.61;89.14
17615;BME280;8926;49.720;6.576;2023-01-09T00:21:32;97854.72;;;8.59;90.07
17615;BME280;8926;49.720;6.576;2023-01-09T00:23:58;97853.66;;;8.61;89.69
17615;BME280;8926;49.720;6.576;2023-01-09T00:26:23;97851.81;;;8.52;89.45
17615;BME280;8926;49.720;6.576;2023-01-09T00:28:50;97847.91;;;8.46;90.07
17615;BME280;8926;49.720;6.576;2023-01-09T00:31:17;97850.63;;;8.45;89.80
17615;BME280;8926;49.720;6.576;2023-01-09T00:33:45;97850.03;;;8.41;90.63
17615;BME280;8926;49.720;6.576;2023-01-09T00:36:12;97847.06;;;8.46;91.01
17615;BME280;8926;49.720;6.576;2023-01-09T00:38:38;97838.31;;;8.47;90.97
17615;BME280;8926;49.720;6.576;2023-01-09T00:41:07;97844.94;;;8.51;90.54
17615;BME280;8926;49.720;6.576;2023-01-09T00:43:37;97847.06;;;8.46;90.58
17615;BME280;8926;49.720;6.576;2023-01-09T00:46:05;97843.53;;;8.47;90.53
17615;BME280;8926;49.720;6.576;2023-01-09T00:48:33;97849.56;;;8.47;90.48
17615;BME280;8926;49.720;6.576;2023-01-09T00:51:00;97844.00;;;8.52;90.60
17615;BME280;8926;49.720;6.576;2023-01-09T00:53:29;97843.03;;;8.53;91.30
17615;BME280;8926;49.720;6.576;2023-01-09T00:55:58;97846.34;;;8.55;91.63
17615;BME280;8926;49.720;6.576;2023-01-09T00:58:25;97849.41;;;8.60;91.03
17615;BME280;8926;49.720;6.576;2023-01-09T01:00:50;97845.59;;;8.64;90.68
17615;BME280;8926;49.720;6.576;2023-01-09T01:03:15;97852.34;;;8.67;90.83
17615;BME280;8926;49.720;6.576;2023-01-09T01:05:41;97857.31;;;8.70;90.28
17615;BME280;8926;49.720;6.576;2023-01-09T01:08:25;97852.00;;;8.71;90.30
17615;BME280;8926;49.720;6.576;2023-01-09T01:10:50;97853.66;;;8.72;90.89
17615;BME280;8926;49.720;6.576;2023-01-09T01:13:15;97860.50;;;8.73;89.97
17615;BME280;8926;49.720;6.576;2023-01-09T01:15:42;97850.94;;;8.74;90.75
17615;BME280;8926;49.720;6.576;2023-01-09T01:18:10;97857.66;;;8.76;89.96
17615;BME280;8926;49.720;6.576;2023-01-09T01:20:35;97871.28;;;8.80;90.70
17615;BME280;8926;49.720;6.576;2023-01-09T01:23:01;97865.66;;;8.84;90.61
17615;BME280;8926;49.720;6.576;2023-01-09T01:25:26;97868.03;;;8.88;90.84
17615;BME280;8926;49.720;6.576;2023-01-09T01:27:51;97871.59;;;8.87;90.31
17615;BME280;8926;49.720;6.576;2023-01-09T01:30:17;97877.31;;;8.80;88.86
17615;BME280;8926;49.720;6.576;2023-01-09T01:32:43;97876.84;;;8.75;88.93
17615;BME280;8926;49.720;6.576;2023-01-09T01:35:09;97886.78;;;8.70;89.28
17615;BME280;8926;49.720;6.576;2023-01-09T01:37:35;97887.25;;;8.64;89.92
17615;BME280;8926;49.720;6.576;2023-01-09T01:40:02;97885.59;;;8.63;90.30
17615;BME280;8926;49.720;6.576;2023-01-09T01:42:27;97892.69;;;8.61;89.67
17615;BME280;8926;49.720;6.576;2023-01-09T01:47:53;97907.88;;;8.56;91.01
17615;BME280;8926;49.720;6.576;2023-01-09T01:55:32;97917.06;;;8.60;91.25
17615;BME280;8926;49.720;6.576;2023-01-09T01:58:03;97918.50;;;8.64;90.05
17615;BME280;8926;49.720;6.576;2023-01-09T02:00:37;97929.84;;;8.63;90.73
17615;BME280;8926;49.720;6.576;2023-01-09T02:03:05;97930.09;;;8.60;91.06
17615;BME280;8926;49.720;6.576;2023-01-09T02:05:31;97923.94;;;8.61;91.38
17615;BME280;8926;49.720;6.576;2023-01-09T02:07:57;97925.34;;;8.65;91.28
17615;BME280;8926;49.720;6.576;2023-01-09T02:10:23;97930.31;;;8.68;91.15
17615;BME280;8926;49.720;6.576;2023-01-09T02:12:48;97924.88;;;8.71;91.48
17615;BME280;8926;49.720;6.576;2023-01-09T02:15:14;97936.00;;;8.73;91.86
17615;BME280;8926;49.720;6.576;2023-01-09T02:20:37;97950.56;;;8.65;90.38
17615;BME280;8926;49.720;6.576;2023-01-09T02:29:09;97964.88;;;8.59;90.40
17615;BME280;8926;49.720;6.576;2023-01-09T02:37:16;97962.63;;;8.66;89.66
17615;BME280;8926;49.720;6.576;2023-01-09T02:40:08;97966.16;;;8.65;90.01
17615;BME280;8926;49.720;6.576;2023-01-09T02:42:37;97973.88;;;8.66;89.88
17615;BME280;8926;49.720;6.576;2023-01-09T02:45:05;97987.59;;;8.68;89.02
17615;BME280;8926;49.720;6.576;2023-01-09T02:47:42;97985.44;;;8.62;89.79
17615;BME280;8926;49.720;6.576;2023-01-09T02:50:15;97989.72;;;8.63;88.42
17615;BME280;8926;49.720;6.576;2023-01-09T02:58:25;98003.44;;;8.54;89.49
17615;BME280;8926;49.720;6.576;2023-01-09T03:03:34;98012.78;;;8.45;88.72
17615;BME280;8926;49.720;6.576;2023-01-09T03:06:14;98024.25;;;8.43;88.11
17615;BME280;8926;49.720;6.576;2023-01-09T03:08:50;98022.59;;;8.42;87.71
17615;BME280;8926;49.720;6.576;2023-01-09T03:11:18;98028.00;;;8.39;86.85
17615;BME280;8926;49.720;6.576;2023-01-09T03:13:51;98037.94;;;8.34;86.64
17615;BME280;8926;49.720;6.576;2023-01-09T03:16:23;98043.84;;;8.36;87.28
17615;BME280;8926;49.720;6.576;2023-01-09T03:18:52;98031.91;;;8.33;86.09
17615;BME280;8926;49.720;6.576;2023-01-09T03:21:19;98040.53;;;8.34;86.01
17615;BME280;8926;49.720;6.576;2023-01-09T03:23:56;98042.66;;;8.29;85.51
17615;BME280;8926;49.720;6.576;2023-01-09T03:26:21;98045.47;;;8.26;85.28
17615;BME280;8926;49.720;6.576;2023-01-09T03:28:47;98044.53;;;8.27;85.74
17615;BME280;8926;49.720;6.576;2023-01-09T03:31:13;98043.09;;;8.23;85.16
17615;BME280;8926;49.720;6.576;2023-01-09T03:33:39;98050.19;;;8.21;85.12
17615;BME280;8926;49.720;6.576;2023-01-09T03:36:05;98044.16;;;8.20;85.74
17615;BME280;8926;49.720;6.576;2023-01-09T03:38:30;98050.41;;;8.17;85.48
17615;BME280;8926;49.720;6.576;2023-01-09T03:40:56;98046.47;;;8.12;85.17
17615;BME280;8926;49.720;6.576;2023-01-09T03:43:21;98049.19;;;8.10;85.18
17615;BME280;8926;49.720;6.576;2023-01-09T03:45:46;98043.28;;;8.08;85.35
17615;BME280;8926;49.720;6.576;2023-01-09T03:48:12;98052.94;;;8.06;85.28
17615;BME280;8926;49.720;6.576;2023-01-09T03:50:37;98058.41;;;8.03;84.96
17615;BME280;8926;49.720;6.576;2023-01-09T03:53:02;98060.91;;;8.05;84.89
17615;BME280;8926;49.720;6.576;2023-01-09T03:55:28;98056.75;;;8.02;84.56
17615;BME280;8926;49.720;6.576;2023-01-09T03:57:53;98061.34;;;7.99;85.26
17615;BME280;8926;49.720;6.576;2023-01-09T04:00:19;98053.03;;;7.94;85.78
17615;BME280;8926;49.720;6.576;2023-01-09T04:02:45;98050.56;;;7.92;85.34
17615;BME280;8926;49.720;6.576;2023-01-09T04:05:11;98065.22;;;7.93;85.96
17615;BME280;8926;49.720;6.576;2023-01-09T04:07:36;98054.09;;;7.91;85.63
17615;BME280;8926;49.720;6.576;2023-01-09T04:10:02;98068.03;;;7.90;85.81
17615;BME280;8926;49.720;6.576;2023-01-09T04:12:28;98078.66;;;7.87;85.57
17615;BME280;8926;49.720;6.576;2023-01-09T04:14:53;98073.44;;;7.87;85.93
17615;BME280;8926;49.720;6.576;2023-01-09T04:17:18;98082.41;;;7.83;84.67
17615;BME280;8926;49.720;6.576;2023-01-09T04:19:43;98077.81;;;7.87;85.89
17615;BME280;8926;49.720;6.576;2023-01-09T04:22:09;98079.81;;;7.83;85.25
17615;BME280;8926;49.720;6.576;2023-01-09T04:24:34;98075.31;;;7.85;85.99
17615;BME280;8926;49.720;6.576;2023-01-09T04:26:59;98086.56;;;7.86;85.23
17615;BME280;8926;49.720;6.576;2023-01-09T04:29:25;98087.81;;;7.80;84.87
17615;BME280;8926;49.720;6.576;2023-01-09T04:31:50;98082.88;;;7.77;84.42
17615;BME280;8926;49.720;6.576;2023-01-09T04:34:15;98099.63;;;7.73;83.66
17615;BME280;8926;49.720;6.576;2023-01-09T04:36:41;98094.13;;;7.65;83.96
17615;BME280;8926;49.720;6.576;2023-01-09T04:39:07;98096.06;;;7.50;84.58
17615;BME280;8926;49.720;6.576;2023-01-09T04:41:32;98099.09;;;7.44;85.06
17615;BME280;8926;49.720;6.576;2023-01-09T04:44:16;98104.19;;;7.45;85.13
17615;BME280;8926;49.720;6.576;2023-01-09T04:46:42;98106.06;;;7.43;85.59
17615;BME280;8926;49.720;6.576;2023-01-09T04:49:07;98109.19;;;7.36;86.13
17615;BME280;8926;49.720;6.576;2023-01-09T04:51:32;98116.34;;;7.32;86.54
17615;BME280;8926;49.720;6.576;2023-01-09T04:53:58;98118.66;;;7.24;87.49
17615;BME280;8926;49.720;6.576;2023-01-09T04:56:23;98111.28;;;7.18;88.34
17615;BME280;8926;49.720;6.576;2023-01-09T04:58:48;98127.09;;;7.15;89.20
17615;BME280;8926;49.720;6.576;2023-01-09T05:01:14;98119.59;;;7.10;89.82
17615;BME280;8926;49.720;6.576;2023-01-09T05:03:39;98128.44;;;7.08;90.19
17615;BME280;8926;49.720;6.576;2023-01-09T05:06:05;98127.50;;;7.09;90.12
17615;BME280;8926;49.720;6.576;2023-01-09T05:08:30;98127.91;;;7.03;90.39
17615;BME280;8926;49.720;6.576;2023-01-09T05:10:55;98139.97;;;7.04;90.83
17615;BME280;8926;49.720;6.576;2023-01-09T05:13:20;98125.84;;;7.08;90.86
17615;BME280;8926;49.720;6.576;2023-01-09T05:15:46;98131.03;;;7.08;90.46
17615;BME280;8926;49.720;6.576;2023-01-09T05:18:11;98134.03;;;7.02;90.94
17615;BME280;8926;49.720;6.576;2023-01-09T05:20:36;98142.44;;;7.05;91.05
17615;BME280;8926;49.720;6.576;2023-01-09T05:23:02;98151.06;;;7.06;91.14
17615;BME280;8926;49.720;6.576;2023-01-09T05:25:27;98145.88;;;7.06;91.24
17615;BME280;8926;49.720;6.576;2023-01-09T05:27:52;98152.00;;;7.05;91.30
17615;BME280;8926;49.720;6.576;2023-01-09T05:30:18;98156.38;;;7.04;91.50
17615;BME280;8926;49.720;6.576;2023-01-09T05:32:43;98159.91;;;7.03;91.47
17615;BME280;8926;49.720;6.576;2023-01-09T05:35:09;98159.78;;;7.05;91.73
17615;BME280;8926;49.720;6.576;2023-01-09T05:37:34;98168.41;;;7.05;91.88
17615;BME280;8926;49.720;6.576;2023-01-09T05:40:00;98167.38;;;7.08;91.91
17615;BME280;8926;49.720;6.576;2023-01-09T05:42:25;98156.16;;;7.07;92.44
17615;BME280;8926;49.720;6.576;2023-01-09T05:44:50;98163.84;;;7.09;91.99
17615;BME280;8926;49.720;6.576;2023-01-09T05:47:15;98167.59;;;7.05;92.34
17615;BME280;8926;49.720;6.576;2023-01-09T05:49:41;98162.19;;;7.08;92.12
17615;BME280;8926;49.720;6.576;2023-01-09T05:52:06;98156.78;;;7.11;92.22
17615;BME280;8926;49.720;6.576;2023-01-09T05:54:32;98163.53;;;7.13;92.18
17615;BME280;8926;49.720;6.576;2023-01-09T05:56:58;98160.09;;;7.13;92.33
17615;BME280;8926;49.720;6.576;2023-01-09T05:59:23;98158.25;;;7.15;92.56
17615;BME280;8926;49.720;6.576;2023-01-09T06:01:48;98158.03;;;7.18;92.00
17615;BME280;8926;49.720;6.576;2023-01-09T06:04:13;98162.59;;;7.14;92.32
17615;BME280;8926;49.720;6.576;2023-01-09T06:06:39;98166.13;;;7.13;92.44
17615;BME280;8926;49.720;6.576;2023-01-09T06:09:05;98165.09;;;7.16;92.19
17615;BME280;8926;49.720;6.576;2023-01-09T06:11:30;98159.06;;;7.15;92.39
17615;BME280;8926;49.720;6.576;2023-01-09T06:13:58;98166.56;;;7.20;91.96
17615;BME280;8926;49.720;6.576;2023-01-09T06:16:23;98169.34;;;7.17;91.88
17615;BME280;8926;49.720;6.576;2023-01-09T06:18:49;98175.50;;;7.16;92.45
17615;BME280;8926;49.720;6.576;2023-01-09T06:21:14;98176.22;;;7.18;92.49
17615;BME280;8926;49.720;6.576;2023-01-09T06:23:40;98170.09;;;7.19;92.37
17615;BME280;8926;49.720;6.576;2023-01-09T06:26:05;98178.59;;;7.21;92.03
17615;BME280;8926;49.720;6.576;2023-01-09T06:28:30;98176.84;;;7.22;92.18
17615;BME280;8926;49.720;6.576;2023-01-09T06:30:56;98183.81;;;7.21;92.46
17615;BME280;8926;49.720;6.576;2023-01-09T06:33:21;98179.00;;;7.15;92.58
17615;BME280;8926;49.720;6.576;2023-01-09T06:35:46;98187.34;;;7.20;92.44
17615;BME280;8926;49.720;6.576;2023-01-09T06:38:12;98178.81;;;7.18;92.34
17615;BME280;8926;49.720;6.576;2023-01-09T06:40:37;98180.47;;;7.19;92.62
17615;BME280;8926;49.720;6.576;2023-01-09T06:43:03;98181.94;;;7.23;92.36
17615;BME280;8926;49.720;6.576;2023-01-09T06:45:28;98182.34;;;7.17;92.42
17615;BME280;8926;49.720;6.576;2023-01-09T06:47:53;98184.22;;;7.15;92.68
17615;BME280;8926;49.720;6.576;2023-01-09T06:50:19;98177.25;;;7.15;93.31
17615;BME280;8926;49.720;6.576;2023-01-09T06:52:44;98185.16;;;7.14;93.45
17615;BME280;8926;49.720;6.576;2023-01-09T06:55:09;98189.59;;;7.12;93.54
17615;BME280;8926;49.720;6.576;2023-01-09T06:57:35;98180.88;;;7.13;93.47
17615;BME280;8926;49.720;6.576;2023-01-09T07:00:00;98180.88;;;7.13;93.47
17615;BME280;8926;49.720;6.576;2023-01-09T07:02:26;98180.78;;;7.14;93.28
17615;BME280;8926;49.720;6.576;2023-01-09T07:04:51;98191.06;;;7.16;93.43
17615;BME280;8926;49.720;6.576;2023-01-09T07:07:16;98192.53;;;7.20;93.22
17615;BME280;8926;49.720;6.576;2023-01-09T07:09:43;98199.19;;;7.24;92.62
17615;BME280;8926;49.720;6.576;2023-01-09T07:12:09;98200.00;;;7.25;92.82
17615;BME280;8926;49.720;6.576;2023-01-09T07:14:34;98199.19;;;7.24;92.61
17615;BME280;8926;49.720;6.576;2023-01-09T07:16:59;98211.22;;;7.25;93.00
17615;BME280;8926;49.720;6.576;2023-01-09T07:19:24;98207.69;;;7.26;92.57
17615;BME280;8926;49.720;6.576;2023-01-09T07:21:50;98209.13;;;7.30;92.23
17615;BME280;8926;49.720;6.576;2023-01-09T07:24:15;98219.31;;;7.33;92.32
17615;BME280;8926;49.720;6.576;2023-01-09T07:26:40;98222.84;;;7.32;92.27
17615;BME280;8926;49.720;6.576;2023-01-09T07:29:06;98220.03;;;7.35;92.30
17615;BME280;8926;49.720;6.576;2023-01-09T07:31:31;98215.78;;;7.34;91.95
17615;BME280;8926;49.720;6.576;2023-01-09T07:33:56;98223.56;;;7.34;91.69
17615;BME280;8926;49.720;6.576;2023-01-09T07:36:22;98225.75;;;7.28;92.09
17615;BME280;8926;49.720;6.576;2023-01-09T07:38:47;98238.44;;;7.32;92.23
17615;BME280;8926;49.720;6.576;2023-01-09T07:41:12;98241.97;;;7.31;91.64
17615;BME280;8926;49.720;6.576;2023-01-09T07:43:38;98230.94;;;7.28;92.20
17615;BME280;8926;49.720;6.576;2023-01-09T07:46:03;98236.97;;;7.28;92.08
17615;BME280;8926;49.720;6.576;2023-01-09T07:48:29;98240.09;;;7.33;92.30
17615;BME280;8926;49.720;6.576;2023-01-09T07:50:54;98236.97;;;7.28;91.74
17615;BME280;8926;49.720;6.576;2023-01-09T07:53:19;98251.94;;;7.25;92.41
17615;BME280;8926;49.720;6.576;2023-01-09T07:55:44;98240.94;;;7.21;92.79
17615;BME280;8926;49.720;6.576;2023-01-09T07:58:10;98236.78;;;7.19;93.48
17615;BME280;8926;49.720;6.576;2023-01-09T08:00:35;98243.00;;;7.16;93.53
17615;BME280;8926;49.720;6.576;2023-01-09T08:03:00;98241.34;;;7.15;93.74
17615;BME280;8926;49.720;6.576;2023-01-09T08:05:26;98249.88;;;7.17;93.52
17615;BME280;8926;49.720;6.576;2023-01-09T08:07:51;98244.66;;;7.17;93.71
17615;BME280;8926;49.720;6.576;2023-01-09T08:10:16;98251.72;;;7.15;93.75
17615;BME280;8926;49.720;6.576;2023-01-09T08:12:44;98249.03;;;7.17;93.95
17615;BME280;8926;49.720;6.576;2023-01-09T08:15:10;98257.84;;;7.14;93.46
17615;BME280;8926;49.720;6.576;2023-01-09T08:17:35;98256.72;;;7.18;93.25
17615;BME280;8926;49.720;6.576;2023-01-09T08:20:01;98262.13;;;7.15;93.69
17615;BME280;8926;49.720;6.576;2023-01-09T08:22:26;98253.50;;;7.14;94.12
17615;BME280;8926;49.720;6.576;2023-01-09T08:24:51;98257.56;;;7.19;94.58
17615;BME280;8926;49.720;6.576;2023-01-09T08:27:17;98266.91;;;7.21;94.37
17615;BME280;8926;49.720;6.576;2023-01-09T08:29:42;98273.75;;;7.22;94.24
17615;BME280;8926;49.720;6.576;2023-01-09T08:32:07;98268.56;;;7.22;94.56
17615;BME280;8926;49.720;6.576;2023-01-09T08:34:34;98271.91;;;7.24;94.48
17615;BME280;8926;49.720;6.576;2023-01-09T08:36:59;98267.53;;;7.25;94.65
17615;BME280;8926;49.720;6.576;2023-01-09T08:39:25;98270.97;;;7.25;94.65
17615;BME280;8926;49.720;6.576;2023-01-09T08:41:50;98278.75;;;7.25;94.54
17615;BME280;8926;49.720;6.576;2023-01-09T08:44:34;98273.56;;;7.25;94.83
17615;BME280;8926;49.720;6.576;2023-01-09T08:47:21;98278.53;;;7.28;94.13
17615;BME280;8926;49.720;6.576;2023-01-09T08:49:47;98275.72;;;7.31;94.69
17615;BME280;8926;49.720;6.576;2023-01-09T08:52:12;98269.59;;;7.32;94.56
17615;BME280;8926;49.720;6.576;2023-01-09T08:54:38;98274.91;;;7.31;94.32
17615;BME280;8926;49.720;6.576;2023-01-09T08:57:04;98281.84;;;7.30;94.19
17615;BME280;8926;49.720;6.576;2023-01-09T08:59:30;98282.47;;;7.34;94.03
17615;BME280;8926;49.720;6.576;2023-01-09T09:01:55;98285.38;;;7.29;94.16
17615;BME280;8926;49.720;6.576;2023-01-09T09:04:22;98294.09;;;7.28;93.69
17615;BME280;8926;49.720;6.576;2023-01-09T09:06:47;98293.72;;;7.34;93.90
17615;BME280;8926;49.720;6.576;2023-01-09T09:09:13;98291.84;;;7.36;93.27
17615;BME280;8926;49.720;6.576;2023-01-09T09:11:39;98285.59;;;7.39;93.18
17615;BME280;8926;49.720;6.576;2023-01-09T09:14:04;98289.78;;;7.41;93.34
17615;BME280;8926;49.720;6.576;2023-01-09T09:16:50;98293.84;;;7.45;93.31
17615;BME280;8926;49.720;6.576;2023-01-09T09:19:16;98294.56;;;7.47;92.98
17615;BME280;8926;49.720;6.576;2023-01-09T09:21:41;98303.09;;;7.49;92.86
17615;BME280;8926;49.720;6.576;2023-01-09T09:24:07;98309.41;;;7.45;92.56
17615;BME280;8926;49.720;6.576;2023-01-09T09:26:33;98310.88;;;7.49;92.61
17615;BME280;8926;49.720;6.576;2023-01-09T09:28:58;98314.91;;;7.54;92.56
17615;BME280;8926;49.720;6.576;2023-01-09T09:31:23;98327.19;;;7.52;92.15
17615;BME280;8926;49.720;6.576;2023-01-09T09:33:49;98315.53;;;7.57;92.33
17615;BME280;8926;49.720;6.576;2023-01-09T09:36:14;98315.88;;;7.53;91.31
17615;BME280;8926;49.720;6.576;2023-01-09T09:38:39;98317.41;;;7.55;91.50
17615;BME280;8926;49.720;6.576;2023-01-09T09:41:15;98323.44;;;7.56;91.58
17615;BME280;8926;49.720;6.576;2023-01-09T09:55:38;98333.84;;;7.56;92.28
17615;BME280;8926;49.720;6.576;2023-01-09T09:58:29;98327.41;;;7.61;91.95
17615;BME280;8926;49.720;6.576;2023-01-09T10:00:57;98335.28;;;7.60;91.71
17615;BME280;8926;49.720;6.576;2023-01-09T10:03:31;98338.31;;;7.66;92.06
17615;BME280;8926;49.720;6.576;2023-01-09T10:06:03;98348.41;;;7.71;90.97
17615;BME280;8926;49.720;6.576;2023-01-09T10:14:28;98339.88;;;7.69;90.65
17615;BME280;8926;49.720;6.576;2023-01-09T10:19:47;98338.00;;;7.71;90.61
17615;BME280;8926;49.720;6.576;2023-01-09T10:28:00;98324.63;;;7.77;89.64
17615;BME280;8926;49.720;6.576;2023-01-09T10:30:49;98320.16;;;7.79;89.72
17615;BME280;8926;49.720;6.576;2023-01-09T10:36:33;98324.50;;;7.91;90.02
17615;BME280;8926;49.720;6.576;2023-01-09T10:39:07;98322.19;;;7.99;89.56
17615;BME280;8926;49.720;6.576;2023-01-09T10:41:48;98323.03;;;8.00;88.35
17615;BME280;8926;49.720;6.576;2023-01-09T10:44:20;98313.84;;;8.07;88.34
17615;BME280;8926;49.720;6.576;2023-01-09T10:46:52;98323.66;;;8.03;88.09
17615;BME280;8926;49.720;6.576;2023-01-09T10:49:18;98320.13;;;8.04;88.71
17615;BME280;8926;49.720;6.576;2023-01-09T10:54:15;98320.41;;;8.12;87.74
17615;BME280;8926;49.720;6.576;2023-01-09T10:57:01;98322.16;;;8.12;87.81
17615;BME280;8926;49.720;6.576;2023-01-09T10:59:30;98324.03;;;8.23;87.41
17615;BME280;8926;49.720;6.576;2023-01-09T11:01:55;98320.28;;;8.27;86.04
17615;BME280;8926;49.720;6.576;2023-01-09T11:04:26;98319.97;;;8.68;85.46
17615;BME280;8926;49.720;6.576;2023-01-09T11:07:04;98324.66;;;8.87;84.28
17615;BME280;8926;49.720;6.576;2023-01-09T11:12:31;98309.25;;;8.83;82.99
17615;BME280;8926;49.720;6.576;2023-01-09T11:17:45;98327.38;;;8.61;83.06
17615;BME280;8926;49.720;6.576;2023-01-09T11:22:49;98320.66;;;8.46;83.40
17615;BME280;8926;49.720;6.576;2023-01-09T11:25:17;98325.06;;;8.33;82.92
17615;BME280;8926;49.720;6.576;2023-01-09T11:27:43;98335.25;;;8.36;83.75
17615;BME280;8926;49.720;6.576;2023-01-09T11:30:26;98329.31;;;8.46;82.63
17615;BME280;8926;49.720;6.576;2023-01-09T11:32:56;98332.31;;;8.53;82.24
17615;BME280;8926;49.720;6.576;2023-01-09T11:35:30;98338.50;;;8.63;82.86
17615;BME280;8926;49.720;6.576;2023-01-09T11:40:25;98334.31;;;8.73;82.16
17615;BME280;8926;49.720;6.576;2023-01-09T11:43:11;98343.28;;;8.69;82.59
17615;BME280;8926;49.720;6.576;2023-01-09T11:45:43;98341.63;;;8.68;82.28
17615;BME280;8926;49.720;6.576;2023-01-09T11:48:28;98345.38;;;8.88;83.19
17615;BME280;8926;49.720;6.576;2023-01-09T11:50:56;98345.28;;;8.90;82.57
17615;BME280;8926;49.720;6.576;2023-01-09T11:53:22;98350.13;;;8.83;81.80
17615;BME280;8926;49.720;6.576;2023-01-09T11:55:58;98348.91;;;8.76;81.13
17615;BME280;8926;49.720;6.576;2023-01-09T11:58:28;98361.59;;;8.80;81.78
17615;BME280;8926;49.720;6.576;2023-01-09T12:04:17;98367.88;;;8.89;81.22
17615;BME280;8926;49.720;6.576;2023-01-09T12:14:23;98355.69;;;8.90;81.13
17615;BME280;8926;49.720;6.576;2023-01-09T12:28:15;98358.50;;;9.10;78.47
17615;BME280;8926;49.720;6.576;2023-01-09T12:31:02;98364.44;;;8.89;78.48
17615;BME280;8926;49.720;6.576;2023-01-09T12:33:43;98366.50;;;8.72;79.70
17615;BME280;8926;49.720;6.576;2023-01-09T12:36:36;98359.75;;;8.70;79.50
17615;BME280;8926;49.720;6.576;2023-01-09T12:39:16;98368.50;;;8.69;79.53
17615;BME280;8926;49.720;6.576;2023-01-09T12:42:09;98355.78;;;8.64;79.68
17615;BME280;8926;49.720;6.576;2023-01-09T12:44:58;98352.69;;;8.59;79.82
17615;BME280;8926;49.720;6.576;2023-01-09T12:47:44;98353.75;;;8.57;79.28
17615;BME280;8926;49.720;6.576;2023-01-09T12:53:41;98362.19;;;8.47;79.12
17615;BME280;8926;49.720;6.576;2023-01-09T12:56:15;98370.63;;;8.51;79.81
17615;BME280;8926;49.720;6.576;2023-01-09T12:58:52;98365.63;;;8.48;79.32
17615;BME280;8926;49.720;6.576;2023-01-09T13:01:44;98355.00;;;8.51;79.39
17615;BME280;8926;49.720;6.576;2023-01-09T13:04:23;98368.97;;;8.50;79.57
17615;BME280;8926;49.720;6.576;2023-01-09T13:07:02;98356.56;;;8.54;79.95
17615;BME280;8926;49.720;6.576;2023-01-09T13:09:38;98363.09;;;8.59;79.81
17615;BME280;8926;49.720;6.576;2023-01-09T13:12:26;98358.50;;;8.63;80.07
17615;BME280;8926;49.720;6.576;2023-01-09T13:15:06;98361.22;;;8.61;79.61
17615;BME280;8926;49.720;6.576;2023-01-09T13:17:46;98358.59;;;8.61;79.74
17615;BME280;8926;49.720;6.576;2023-01-09T13:20:22;98359.56;;;8.60;80.54
17615;BME280;8926;49.720;6.576;2023-01-09T13:22:50;98371.16;;;8.56;81.45
17615;BME280;8926;49.720;6.576;2023-01-09T13:28:11;98372.72;;;8.46;82.04
17615;BME280;8926;49.720;6.576;2023-01-09T13:33:27;98385.22;;;8.41;83.18
17615;BME280;8926;49.720;6.576;2023-01-09T13:35:57;98385.09;;;8.30;83.38
17615;BME280;8926;49.720;6.576;2023-01-09T13:38:25;98391.47;;;8.26;83.34
17615;BME280;8926;49.720;6.576;2023-01-09T13:41:11;98385.44;;;8.25;83.56
17615;BME280;8926;49.720;6.576;2023-01-09T13:44:01;98392.19;;;8.28;84.83
17615;BME280;8926;49.720;6.576;2023-01-09T13:46:34;98385.81;;;8.32;83.90
17615;BME280;8926;49.720;6.576;2023-01-09T13:49:01;98396.47;;;8.29;84.43
17615;BME280;8926;49.720;6.576;2023-01-09T13:54:09;98411.66;;;8.35;84.54
17615;BME280;8926;49.720;6.576;2023-01-09T13:59:45;98410.50;;;8.39;84.58
17615;BME280;8926;49.720;6.576;2023-01-09T14:05:02;98429.13;;;8.20;84.47
17615;BME280;8926;49.720;6.576;2023-01-09T14:07:30;98433.72;;;8.04;85.67
17615;BME280;8926;49.720;6.576;2023-01-09T14:10:01;98442.22;;;7.93;85.43
17615;BME280;8926;49.720;6.576;2023-01-09T14:12:29;98448.47;;;7.91;85.39
17615;BME280;8926;49.720;6.576;2023-01-09T14:14:58;98449.88;;;7.82;85.40
17615;BME280;8926;49.720;6.576;2023-01-09T14:17:30;98456.97;;;7.80;84.39
17615;BME280;8926;49.720;6.576;2023-01-09T14:19:59;98463.81;;;7.68;83.85
17615;BME280;8926;49.720;6.576;2023-01-09T14:22:29;98472.44;;;7.69;84.20
17615;BME280;8926;49.720;6.576;2023-01-09T14:25:08;98483.97;;;7.65;84.27
17615;BME280;8926;49.720;6.576;2023-01-09T14:28:04;98477.50;;;7.58;84.82
17615;BME280;8926;49.720;6.576;2023-01-09T14:30:35;98491.63;;;7.54;84.76
17615;BME280;8926;49.720;6.576;2023-01-09T14:38:28;98521.19;;;7.38;85.25
17615;BME280;8926;49.720;6.576;2023-01-09T14:43:55;98532.13;;;7.43;85.55
17615;BME280;8926;49.720;6.576;2023-01-09T14:46:24;98549.38;;;7.44;84.98
17615;BME280;8926;49.720;6.576;2023-01-09T14:49:09;98552.56;;;7.35;84.71
17615;BME280;8926;49.720;6.576;2023-01-09T14:51:41;98558.69;;;7.34;85.14
17615;BME280;8926;49.720;6.576;2023-01-09T14:54:26;98570.72;;;7.35;84.96
17615;BME280;8926;49.720;6.576;2023-01-09T14:56:52;98580.19;;;7.36;85.12
17615;BME280;8926;49.720;6.576;2023-01-09T14:59:18;98582.59;;;7.39;85.04
17615;BME280;8926;49.720;6.576;2023-01-09T15:01:46;98594.84;;;7.37;85.20
17615;BME280;8926;49.720;6.576;2023-01-09T15:04:30;98600.59;;;7.42;85.17
17615;BME280;8926;49.720;6.576;2023-01-09T15:06:59;98612.56;;;7.45;84.12
17615;BME280;8926;49.720;6.576;2023-01-09T15:09:36;98621.50;;;7.41;84.44
17615;BME280;8926;49.720;6.576;2023-01-09T15:12:08;98623.53;;;7.36;84.93
17615;BME280;8926;49.720;6.576;2023-01-09T15:14:37;98644.97;;;7.39;85.29
17615;BME280;8926;49.720;6.576;2023-01-09T15:17:04;98633.72;;;7.39;84.49
17615;BME280;8926;49.720;6.576;2023-01-09T15:19:31;98644.97;;;7.39;85.08
17615;BME280;8926;49.720;6.576;2023-01-09T15:22:03;98651.81;;;7.40;85.81
17615;BME280;8926;49.720;6.576;2023-01-09T15:24:31;98656.66;;;7.46;85.25
17615;BME280;8926;49.720;6.576;2023-01-09T15:26:59;98670.19;;;7.52;85.95
17615;BME280;8926;49.720;6.576;2023-01-09T15:29:25;98675.00;;;7.58;85.72
17615;BME280;8926;49.720;6.576;2023-01-09T15:31:59;98678.34;;;7.60;84.82
17615;BME280;8926;49.720;6.576;2023-01-09T15:34:27;98681.88;;;7.59;85.13